createdAt,value
2017-05-08T00:00:30.978Z,0
2017-05-08T00:01:31.245Z,0
2017-05-08T00:02:30.715Z,0
2017-05-08T00:03:31.059Z,0
2017-05-08T00:04:31.091Z,0
2017-05-08T00:05:31.108Z,0
2017-05-08T00:06:31.402Z,0
2017-05-08T00:07:31.166Z,0
2017-05-08T00:08:30.879Z,0
2017-05-08T00:09:31.231Z,0
2017-05-08T00:10:31.252Z,0
2017-05-08T00:11:31.525Z,0
2017-05-08T00:12:31.299Z,0
2017-05-08T00:13:31.334Z,0
2017-05-08T00:14:31.056Z,0
2017-05-08T00:15:31.384Z,0
2017-05-08T00:16:31.345Z,0
2017-05-08T00:17:31.442Z,0
2017-05-08T00:18:31.465Z,0
2017-05-08T00:19:31.191Z,0
2017-05-08T00:20:31.212Z,0
2017-05-08T00:21:31.494Z,0
2017-05-08T00:22:31.589Z,0
2017-05-08T00:23:31.601Z,0
2017-05-08T00:24:31.334Z,0
2017-05-08T00:25:31.352Z,0
2017-05-08T00:26:31.932Z,0
2017-05-08T00:27:31.093Z,0
2017-05-08T00:28:31.746Z,0
2017-05-08T00:29:31.456Z,0
2017-05-08T00:30:31.488Z,0
2017-05-08T00:31:32.068Z,0
2017-05-08T00:32:31.851Z,0
2017-05-08T00:33:31.881Z,0
2017-05-08T00:34:31.899Z,0
2017-05-08T00:35:31.936Z,0
2017-05-08T00:36:32.213Z,0
2017-05-08T00:37:31.680Z,0
2017-05-08T00:38:31.694Z,0
2017-05-08T00:39:31.743Z,0
2017-05-08T00:40:32.066Z,0
2017-05-08T00:41:32.352Z,0
2017-05-08T00:42:31.810Z,0
2017-05-08T00:43:32.155Z,0
2017-05-08T00:44:31.919Z,0
2017-05-08T00:45:32.211Z,0
2017-05-08T00:46:31.611Z,0
2017-05-08T00:47:31.885Z,0
2017-05-08T00:48:31.661Z,0
2017-05-08T00:49:32.005Z,0
2017-05-08T00:50:31.728Z,0
2017-05-08T00:51:32.395Z,0
2017-05-08T00:52:32.656Z,0
2017-05-08T00:53:31.816Z,0
2017-05-08T00:54:32.446Z,0
2017-05-08T00:55:31.857Z,0
2017-05-08T00:56:31.887Z,0
2017-05-08T00:57:32.485Z,0
2017-05-08T00:58:32.251Z,0
2017-05-08T00:59:32.590Z,0
2017-05-08T01:00:31.679Z,0
2017-05-08T01:01:32.648Z,0
2017-05-08T01:02:32.611Z,0
2017-05-08T01:03:32.709Z,0
2017-05-08T01:04:32.739Z,0
2017-05-08T01:05:32.753Z,0
2017-05-08T01:06:32.783Z,0
2017-05-08T01:07:33.056Z,0
2017-05-08T01:08:32.870Z,0
2017-05-08T01:09:32.866Z,0
2017-05-08T01:10:32.875Z,0
2017-05-08T01:11:32.638Z,0
2017-05-08T01:12:32.888Z,0
2017-05-08T01:13:32.982Z,0
2017-05-08T01:14:32.378Z,0
2017-05-08T01:15:33.031Z,0
2017-05-08T01:16:32.750Z,0
2017-05-08T01:17:33.340Z,0
2017-05-08T01:18:32.795Z,0
2017-05-08T01:19:33.132Z,0
2017-05-08T01:20:33.162Z,0
2017-05-08T01:21:32.879Z,0
2017-05-08T01:22:32.879Z,0
2017-05-08T01:23:32.619Z,0
2017-05-08T01:24:33.281Z,0
2017-05-08T01:25:32.981Z,0
2017-05-08T01:26:32.707Z,0
2017-05-08T01:27:33.600Z,0
2017-05-08T01:28:33.076Z,0
2017-05-08T01:29:32.788Z,0
2017-05-08T01:30:33.126Z,0
2017-05-08T01:31:33.470Z,0
2017-05-08T01:32:33.119Z,0
2017-05-08T01:33:33.207Z,0
2017-05-08T01:34:33.540Z,0
2017-05-08T01:35:33.578Z,0
2017-05-08T01:36:33.291Z,0
2017-05-08T01:37:33.875Z,0
2017-05-08T01:38:33.358Z,0
2017-05-08T01:39:33.685Z,0
2017-05-08T01:40:33.424Z,0
2017-05-08T01:41:33.752Z,0
2017-05-08T01:42:33.399Z,0
2017-05-08T01:43:33.479Z,0
2017-05-08T01:44:33.824Z,0
2017-05-08T01:45:33.541Z,0
2017-05-08T01:46:33.570Z,0
2017-05-08T01:47:33.833Z,0
2017-05-08T01:48:33.624Z,0
2017-05-08T01:49:33.957Z,0
2017-05-08T01:50:33.992Z,0
2017-05-08T01:51:33.706Z,0
2017-05-08T01:52:34.294Z,0
2017-05-08T01:53:33.757Z,0
2017-05-08T01:54:34.117Z,0
2017-05-08T01:55:33.818Z,0
2017-05-08T01:56:33.525Z,0
2017-05-08T01:57:33.585Z,0
2017-05-08T01:58:34.455Z,0
2017-05-08T01:59:34.230Z,0
2017-05-08T02:00:33.941Z,0
2017-05-08T02:01:33.970Z,0
2017-05-08T02:02:33.997Z,0
2017-05-08T02:03:34.587Z,0
2017-05-08T02:04:34.359Z,0
2017-05-08T02:05:34.080Z,0
2017-05-08T02:06:33.793Z,0
2017-05-08T02:07:33.818Z,0
2017-05-08T02:08:34.731Z,0
2017-05-08T02:09:33.876Z,0
2017-05-08T02:10:34.216Z,0
2017-05-08T02:11:34.559Z,0
2017-05-08T02:12:34.273Z,0
2017-05-08T02:13:34.868Z,0
2017-05-08T02:14:34.331Z,0
2017-05-08T02:15:34.352Z,0
2017-05-08T02:16:33.749Z,0
2017-05-08T02:17:34.722Z,0
2017-05-08T02:18:34.998Z,0
2017-05-08T02:19:34.455Z,0
2017-05-08T02:20:34.487Z,0
2017-05-08T02:21:34.516Z,0
2017-05-08T02:22:33.939Z,0
2017-05-08T02:23:35.137Z,0
2017-05-08T02:24:34.603Z,0
2017-05-08T02:25:34.933Z,0
2017-05-08T02:26:34.964Z,0
2017-05-08T02:27:34.702Z,0
2017-05-08T02:28:35.273Z,0
2017-05-08T02:29:35.051Z,0
2017-05-08T02:30:34.766Z,0
2017-05-08T02:31:34.781Z,0
2017-05-08T02:32:34.825Z,0
2017-05-08T02:33:34.777Z,0
2017-05-08T02:34:35.183Z,0
2017-05-08T02:35:34.895Z,0
2017-05-08T02:36:34.924Z,0
2017-05-08T02:37:35.261Z,0
2017-05-08T02:38:35.226Z,0
2017-05-08T02:39:35.322Z,0
2017-05-08T02:40:35.342Z,0
2017-05-08T02:41:35.056Z,0
2017-05-08T02:42:35.089Z,0
2017-05-08T02:43:35.681Z,0
2017-05-08T02:44:34.835Z,0
2017-05-08T02:45:35.162Z,0
2017-05-08T02:46:35.188Z,0
2017-05-08T02:47:35.536Z,0
2017-05-08T02:48:35.501Z,0
2017-05-08T02:49:35.585Z,0
2017-05-08T02:50:35.298Z,0
2017-05-08T02:51:35.024Z,0
2017-05-08T02:52:35.677Z,0
2017-05-08T02:53:35.665Z,0
2017-05-08T02:54:35.453Z,0
2017-05-08T02:55:35.438Z,0
2017-05-08T02:56:35.151Z,0
2017-05-08T02:57:34.864Z,0
2017-05-08T02:58:35.468Z,0
2017-05-08T02:59:35.550Z,0
2017-05-08T03:00:35.569Z,0
2017-05-08T03:01:35.907Z,0
2017-05-08T03:02:35.941Z,0
2017-05-08T03:03:35.929Z,0
2017-05-08T03:04:35.993Z,0
2017-05-08T03:05:35.710Z,0
2017-05-08T03:06:35.427Z,0
2017-05-08T03:07:35.495Z,0
2017-05-08T03:08:36.052Z,0
2017-05-08T03:09:36.141Z,0
2017-05-08T03:10:35.849Z,0
2017-05-08T03:11:36.187Z,0
2017-05-08T03:12:35.600Z,0
2017-05-08T03:13:36.189Z,0
2017-05-08T03:14:35.329Z,0
2017-05-08T03:15:35.682Z,0
2017-05-08T03:16:36.323Z,0
2017-05-08T03:17:36.355Z,0
2017-05-08T03:18:36.003Z,0
2017-05-08T03:19:35.473Z,0
2017-05-08T03:20:35.498Z,0
2017-05-08T03:21:37.832Z,0
2017-05-08T03:22:36.176Z,0
2017-05-08T03:23:36.759Z,0
2017-05-08T03:24:36.540Z,0
2017-05-08T03:25:36.258Z,0
2017-05-08T03:26:36.598Z,0
2017-05-08T03:27:36.310Z,0
2017-05-08T03:28:36.655Z,0
2017-05-08T03:29:36.605Z,0
2017-05-08T03:30:36.702Z,0
2017-05-08T03:31:36.107Z,0
2017-05-08T03:32:36.760Z,0
2017-05-08T03:33:36.171Z,0
2017-05-08T03:34:37.073Z,0
2017-05-08T03:35:36.553Z,0
2017-05-08T03:36:36.857Z,0
2017-05-08T03:37:36.263Z,0
2017-05-08T03:38:36.307Z,0
2017-05-08T03:39:37.203Z,0
2017-05-08T03:40:36.661Z,0
2017-05-08T03:41:36.687Z,0
2017-05-08T03:42:36.710Z,0
2017-05-08T03:43:36.760Z,0
2017-05-08T03:44:37.018Z,0
2017-05-08T03:45:36.493Z,0
2017-05-08T03:46:36.509Z,0
2017-05-08T03:47:36.859Z,0
2017-05-08T03:48:37.191Z,0
2017-05-08T03:49:37.476Z,0
2017-05-08T03:50:37.247Z,0
2017-05-08T03:51:36.958Z,0
2017-05-08T03:52:37.302Z,0
2017-05-08T03:53:37.011Z,0
2017-05-08T03:54:37.603Z,0
2017-05-08T03:55:37.077Z,0
2017-05-08T03:56:37.412Z,0
2017-05-08T03:57:37.142Z,0
2017-05-08T03:58:37.456Z,0
2017-05-08T03:59:37.744Z,0
2017-05-08T04:00:37.552Z,0
2017-05-08T04:01:36.613Z,0
2017-05-08T04:02:36.947Z,0
2017-05-08T04:03:36.967Z,0
2017-05-08T04:04:37.567Z,0
2017-05-08T04:05:37.344Z,0
2017-05-08T04:06:37.364Z,0
2017-05-08T04:07:37.395Z,0
2017-05-08T04:08:37.102Z,0
2017-05-08T04:09:37.700Z,0
2017-05-08T04:10:37.473Z,0
2017-05-08T04:11:37.194Z,0
2017-05-08T04:12:37.521Z,0
2017-05-08T04:13:37.558Z,0
2017-05-08T04:14:37.518Z,0
2017-05-08T04:15:37.610Z,0
2017-05-08T04:16:37.013Z,0
2017-05-08T04:17:37.343Z,0
2017-05-08T04:18:38.042Z,0
2017-05-08T04:19:38.286Z,0
2017-05-08T04:20:37.748Z,0
2017-05-08T04:21:37.456Z,0
2017-05-08T04:22:38.108Z,0
2017-05-08T04:23:38.183Z,0
2017-05-08T04:24:38.135Z,0
2017-05-08T04:25:37.888Z,0
2017-05-08T04:26:37.600Z,0
2017-05-08T04:27:38.256Z,0
2017-05-08T04:28:37.650Z,0
2017-05-08T04:29:38.244Z,0
2017-05-08T04:30:38.331Z,0
2017-05-08T04:31:37.728Z,0
2017-05-08T04:32:37.764Z,0
2017-05-08T04:33:38.407Z,0
2017-05-08T04:34:37.759Z,0
2017-05-08T04:35:38.464Z,0
2017-05-08T04:36:38.495Z,0
2017-05-08T04:37:38.197Z,0
2017-05-08T04:38:38.241Z,0
2017-05-08T04:39:38.518Z,0
2017-05-08T04:40:38.607Z,0
2017-05-08T04:41:38.316Z,0
2017-05-08T04:42:38.657Z,0
2017-05-08T04:43:38.674Z,0
2017-05-08T04:44:38.654Z,0
2017-05-08T04:45:38.102Z,0
2017-05-08T04:46:38.763Z,0
2017-05-08T04:47:38.484Z,0
2017-05-08T04:48:38.500Z,0
2017-05-08T04:49:38.471Z,0
2017-05-08T04:50:38.246Z,0
2017-05-08T04:51:38.587Z,0
2017-05-08T04:52:38.929Z,0
2017-05-08T04:53:38.946Z,0
2017-05-08T04:54:39.229Z,0
2017-05-08T04:55:39.006Z,0
2017-05-08T04:56:39.043Z,0
2017-05-08T04:57:38.744Z,0
2017-05-08T04:58:39.081Z,0
2017-05-08T04:59:39.052Z,0
2017-05-08T05:00:39.138Z,0
2017-05-08T05:01:38.547Z,0
2017-05-08T05:02:39.199Z,0
2017-05-08T05:03:38.922Z,0
2017-05-08T05:04:38.629Z,0
2017-05-08T05:05:38.911Z,0
2017-05-08T05:06:38.686Z,0
2017-05-08T05:07:39.025Z,0
2017-05-08T05:08:39.044Z,0
2017-05-08T05:09:39.071Z,0
2017-05-08T05:10:39.355Z,0
2017-05-08T05:11:39.437Z,0
2017-05-08T05:12:39.155Z,0
2017-05-08T05:13:38.565Z,0
2017-05-08T05:14:39.517Z,0
2017-05-08T05:15:39.482Z,0
2017-05-08T05:16:38.960Z,0
2017-05-08T05:17:39.286Z,0
2017-05-08T05:18:39.319Z,0
2017-05-08T05:19:39.024Z,0
2017-05-08T05:20:39.937Z,0
2017-05-08T05:21:39.382Z,0
2017-05-08T05:22:39.736Z,0
2017-05-08T05:23:39.456Z,0
2017-05-08T05:24:39.481Z,0
2017-05-08T05:25:39.761Z,0
2017-05-08T05:26:39.846Z,0
2017-05-08T05:27:39.879Z,0
2017-05-08T05:28:39.600Z,0
2017-05-08T05:29:39.925Z,0
2017-05-08T05:30:39.893Z,0
2017-05-08T05:31:39.990Z,0
2017-05-08T05:32:40.011Z,0
2017-05-08T05:33:40.040Z,0
2017-05-08T05:34:40.070Z,0
2017-05-08T05:35:40.037Z,0
2017-05-08T05:36:40.123Z,0
2017-05-08T05:37:39.527Z,0
2017-05-08T05:38:39.549Z,0
2017-05-08T05:39:39.571Z,0
2017-05-08T05:40:40.480Z,0
2017-05-08T05:41:39.673Z,0
2017-05-08T05:42:39.971Z,0
2017-05-08T05:43:40.004Z,0
2017-05-08T05:44:40.335Z,0
2017-05-08T05:45:40.313Z,0
2017-05-08T05:46:40.409Z,0
2017-05-08T05:47:40.427Z,0
2017-05-08T05:48:40.147Z,0
2017-05-08T05:49:40.161Z,0
2017-05-08T05:50:40.136Z,0
2017-05-08T05:51:39.593Z,0
2017-05-08T05:52:40.566Z,0
2017-05-08T05:53:39.958Z,5
2017-05-08T05:54:40.620Z,5
2017-05-08T05:55:40.893Z,5
2017-05-08T05:56:40.349Z,5
2017-05-08T05:57:40.071Z,0
2017-05-08T05:58:40.737Z,5
2017-05-08T05:59:39.821Z,5
2017-05-08T06:00:40.715Z,5
2017-05-08T06:01:40.495Z,5
2017-05-08T06:02:40.835Z,5
2017-05-08T06:03:40.554Z,5
2017-05-08T06:04:40.579Z,5
2017-05-08T06:05:40.540Z,5
2017-05-08T06:06:40.628Z,5
2017-05-08T06:07:40.658Z,5
2017-05-08T06:08:41.003Z,5
2017-05-08T06:09:40.717Z,5
2017-05-08T06:10:41.313Z,0
2017-05-08T06:11:41.081Z,0
2017-05-08T06:12:40.810Z,0
2017-05-08T06:13:40.835Z,0
2017-05-08T06:14:41.160Z,0
2017-05-08T06:15:41.447Z,0
2017-05-08T06:16:41.229Z,0
2017-05-08T06:17:40.937Z,0
2017-05-08T06:18:41.275Z,0
2017-05-08T06:19:41.306Z,5
2017-05-08T06:20:41.275Z,5
2017-05-08T06:21:40.421Z,5
2017-05-08T06:22:41.402Z,5
2017-05-08T06:23:40.822Z,5
2017-05-08T06:24:41.134Z,5
2017-05-08T06:25:41.408Z,5
2017-05-08T06:26:41.188Z,5
2017-05-08T06:27:41.216Z,5
2017-05-08T06:28:41.246Z,5
2017-05-08T06:29:40.952Z,5
2017-05-08T06:30:41.542Z,5
2017-05-08T06:31:41.317Z,5
2017-05-08T06:32:41.344Z,5
2017-05-08T06:33:41.685Z,5
2017-05-08T06:34:41.718Z,5
2017-05-08T06:35:41.990Z,5
2017-05-08T06:36:41.765Z,5
2017-05-08T06:37:41.802Z,5
2017-05-08T06:38:41.521Z,5
2017-05-08T06:39:41.851Z,5
2017-05-08T06:40:40.939Z,5
2017-05-08T06:41:41.845Z,5
2017-05-08T06:42:41.624Z,5
2017-05-08T06:43:41.661Z,5
2017-05-08T06:44:41.684Z,5
2017-05-08T06:45:41.382Z,5
2017-05-08T06:46:41.973Z,5
2017-05-08T06:47:41.762Z,5
2017-05-08T06:48:42.115Z,5
2017-05-08T06:49:42.128Z,5
2017-05-08T06:50:41.839Z,5
2017-05-08T06:51:41.810Z,5
2017-05-08T06:52:42.207Z,5
2017-05-08T06:53:42.234Z,5
2017-05-08T06:54:42.266Z,5
2017-05-08T06:55:42.292Z,5
2017-05-08T06:56:42.259Z,5
2017-05-08T06:57:42.033Z,5
2017-05-08T06:58:42.073Z,5
2017-05-08T06:59:42.407Z,5
2017-05-08T07:00:41.827Z,5
2017-05-08T07:01:42.708Z,5
2017-05-08T07:02:42.174Z,5
2017-05-08T07:03:41.897Z,5
2017-05-08T07:04:42.231Z,10
2017-05-08T07:05:42.247Z,10
2017-05-08T07:06:42.213Z,10
2017-05-08T07:07:42.308Z,10
2017-05-08T07:08:42.346Z,10
2017-05-08T07:09:42.362Z,5
2017-05-08T07:10:42.702Z,5
2017-05-08T07:11:42.672Z,5
2017-05-08T07:12:42.756Z,5
2017-05-08T07:13:42.474Z,10
2017-05-08T07:14:42.492Z,10
2017-05-08T07:15:42.834Z,10
2017-05-08T07:16:42.803Z,10
2017-05-08T07:17:42.583Z,15
2017-05-08T07:18:42.617Z,15
2017-05-08T07:19:42.948Z,15
2017-05-08T07:20:42.662Z,15
2017-05-08T07:21:42.948Z,15
2017-05-08T07:22:42.408Z,15
2017-05-08T07:23:43.061Z,20
2017-05-08T07:24:43.077Z,25
2017-05-08T07:25:43.109Z,20
2017-05-08T07:26:42.459Z,15
2017-05-08T07:27:43.192Z,15
2017-05-08T07:28:42.894Z,15
2017-05-08T07:29:42.914Z,15
2017-05-08T07:30:43.252Z,15
2017-05-08T07:31:43.527Z,15
2017-05-08T07:32:42.987Z,15
2017-05-08T07:33:43.025Z,15
2017-05-08T07:34:43.045Z,15
2017-05-08T07:35:42.766Z,15
2017-05-08T07:36:43.359Z,15
2017-05-08T07:37:42.815Z,15
2017-05-08T07:38:43.476Z,20
2017-05-08T07:39:42.862Z,20
2017-05-08T07:40:43.526Z,15
2017-05-08T07:41:43.812Z,15
2017-05-08T07:42:43.580Z,10
2017-05-08T07:43:43.607Z,10
2017-05-08T07:44:43.637Z,10
2017-05-08T07:45:43.693Z,10
2017-05-08T07:46:43.627Z,10
2017-05-08T07:47:43.107Z,10
2017-05-08T07:48:43.120Z,10
2017-05-08T07:49:43.464Z,10
2017-05-08T07:50:43.505Z,10
2017-05-08T07:51:43.766Z,10
2017-05-08T07:52:43.232Z,10
2017-05-08T07:53:43.567Z,10
2017-05-08T07:54:43.284Z,10
2017-05-08T07:55:43.941Z,10
2017-05-08T07:56:43.591Z,10
2017-05-08T07:57:43.368Z,10
2017-05-08T07:58:44.018Z,10
2017-05-08T07:59:43.425Z,10
2017-05-08T08:00:43.453Z,10
2017-05-08T08:01:44.038Z,10
2017-05-08T08:02:44.121Z,10
2017-05-08T08:03:43.539Z,10
2017-05-08T08:04:43.563Z,10
2017-05-08T08:05:44.217Z,10
2017-05-08T08:06:44.186Z,15
2017-05-08T08:07:43.638Z,15
2017-05-08T08:08:44.297Z,15
2017-05-08T08:09:44.004Z,15
2017-05-08T08:10:44.352Z,15
2017-05-08T08:11:44.613Z,15
2017-05-08T08:12:43.778Z,15
2017-05-08T08:13:44.110Z,15
2017-05-08T08:14:44.154Z,15
2017-05-08T08:15:44.489Z,15
2017-05-08T08:16:44.769Z,15
2017-05-08T08:17:44.550Z,15
2017-05-08T08:18:44.568Z,20
2017-05-08T08:19:44.588Z,15
2017-05-08T08:20:44.001Z,15
2017-05-08T08:21:44.892Z,20
2017-05-08T08:22:44.674Z,20
2017-05-08T08:23:44.699Z,20
2017-05-08T08:24:44.735Z,20
2017-05-08T08:25:44.768Z,20
2017-05-08T08:26:44.474Z,15
2017-05-08T08:27:44.758Z,15
2017-05-08T08:28:44.539Z,15
2017-05-08T08:29:44.240Z,20
2017-05-08T08:30:44.584Z,20
2017-05-08T08:31:44.938Z,15
2017-05-08T08:32:45.233Z,15
2017-05-08T08:33:44.990Z,15
2017-05-08T08:34:44.375Z,10
2017-05-08T08:35:44.724Z,15
2017-05-08T08:36:45.056Z,15
2017-05-08T08:37:45.341Z,15
2017-05-08T08:38:45.118Z,20
2017-05-08T08:39:45.143Z,20
2017-05-08T08:40:45.159Z,25
2017-05-08T08:41:44.252Z,25
2017-05-08T08:42:45.477Z,20
2017-05-08T08:43:44.938Z,20
2017-05-08T08:44:44.963Z,20
2017-05-08T08:45:44.693Z,20
2017-05-08T08:46:44.395Z,20
2017-05-08T08:47:44.683Z,20
2017-05-08T08:48:45.391Z,20
2017-05-08T08:49:45.097Z,20
2017-05-08T08:50:45.426Z,20
2017-05-08T08:51:45.158Z,25
2017-05-08T08:52:45.760Z,25
2017-05-08T08:53:44.890Z,25
2017-05-08T08:54:45.548Z,20
2017-05-08T08:55:45.574Z,25
2017-05-08T08:56:45.608Z,30
2017-05-08T08:57:45.881Z,25
2017-05-08T08:58:45.342Z,25
2017-05-08T08:59:45.385Z,25
2017-05-08T09:00:45.408Z,25
2017-05-08T09:01:45.744Z,20
2017-05-08T09:02:46.029Z,20
2017-05-08T09:03:45.810Z,20
2017-05-08T09:04:45.522Z,25
2017-05-08T09:05:45.867Z,25
2017-05-08T09:06:45.263Z,20
2017-05-08T09:07:45.852Z,20
2017-05-08T09:08:45.934Z,25
2017-05-08T09:09:45.650Z,30
2017-05-08T09:10:45.671Z,35
2017-05-08T09:11:45.390Z,35
2017-05-08T09:12:45.988Z,30
2017-05-08T09:13:45.764Z,30
2017-05-08T09:14:46.097Z,30
2017-05-08T09:15:45.806Z,30
2017-05-08T09:16:45.843Z,30
2017-05-08T09:17:46.132Z,25
2017-05-08T09:18:45.885Z,25
2017-05-08T09:19:45.609Z,30
2017-05-08T09:20:45.643Z,30
2017-05-08T09:21:46.283Z,30
2017-05-08T09:22:46.567Z,25
2017-05-08T09:23:46.033Z,30
2017-05-08T09:24:46.373Z,30
2017-05-08T09:25:45.779Z,30
2017-05-08T09:26:45.803Z,30
2017-05-08T09:27:46.387Z,25
2017-05-08T09:28:45.856Z,25
2017-05-08T09:29:45.873Z,25
2017-05-08T09:30:46.539Z,20
2017-05-08T09:31:46.256Z,25
2017-05-08T09:32:46.519Z,20
2017-05-08T09:33:46.617Z,20
2017-05-08T09:34:46.332Z,25
2017-05-08T09:35:46.374Z,30
2017-05-08T09:36:46.382Z,30
2017-05-08T09:37:46.659Z,25
2017-05-08T09:38:46.756Z,25
2017-05-08T09:39:46.158Z,25
2017-05-08T09:40:46.506Z,25
2017-05-08T09:41:46.226Z,30
2017-05-08T09:42:47.112Z,30
2017-05-08T09:43:46.892Z,25
2017-05-08T09:44:46.926Z,25
2017-05-08T09:45:46.318Z,25
2017-05-08T09:46:46.654Z,35
2017-05-08T09:47:46.627Z,35
2017-05-08T09:48:47.025Z,40
2017-05-08T09:49:47.056Z,35
2017-05-08T09:50:46.769Z,35
2017-05-08T09:51:46.810Z,35
2017-05-08T09:52:47.395Z,30
2017-05-08T09:53:47.163Z,30
2017-05-08T09:54:47.195Z,30
2017-05-08T09:55:47.213Z,35
2017-05-08T09:56:46.941Z,35
2017-05-08T09:57:47.201Z,35
2017-05-08T09:58:46.992Z,35
2017-05-08T09:59:47.324Z,35
2017-05-08T10:00:47.041Z,30
2017-05-08T10:01:47.073Z,30
2017-05-08T10:02:47.349Z,30
2017-05-08T10:03:46.847Z,30
2017-05-08T10:04:47.464Z,30
2017-05-08T10:05:47.177Z,35
2017-05-08T10:06:47.201Z,35
2017-05-08T10:07:47.174Z,30
2017-05-08T10:08:47.271Z,35
2017-05-08T10:09:47.282Z,40
2017-05-08T10:10:47.002Z,40
2017-05-08T10:11:47.653Z,40
2017-05-08T10:12:47.622Z,40
2017-05-08T10:13:47.394Z,35
2017-05-08T10:14:47.107Z,35
2017-05-08T10:15:46.824Z,30
2017-05-08T10:16:47.489Z,30
2017-05-08T10:17:47.770Z,30
2017-05-08T10:18:47.528Z,30
2017-05-08T10:19:47.876Z,30
2017-05-08T10:20:47.272Z,30
2017-05-08T10:21:47.613Z,30
2017-05-08T10:22:47.282Z,35
2017-05-08T10:23:47.670Z,35
2017-05-08T10:24:47.697Z,40
2017-05-08T10:25:47.732Z,40
2017-05-08T10:26:47.757Z,40
2017-05-08T10:27:48.345Z,40
2017-05-08T10:28:48.123Z,40
2017-05-08T10:29:48.152Z,35
2017-05-08T10:30:48.188Z,30
2017-05-08T10:31:48.201Z,35
2017-05-08T10:32:47.609Z,35
2017-05-08T10:33:47.883Z,35
2017-05-08T10:34:47.662Z,35
2017-05-08T10:35:48.004Z,30
2017-05-08T10:36:48.031Z,30
2017-05-08T10:37:48.369Z,35
2017-05-08T10:38:48.334Z,40
2017-05-08T10:39:47.799Z,40
2017-05-08T10:40:48.458Z,40
2017-05-08T10:41:48.480Z,35
2017-05-08T10:42:48.519Z,30
2017-05-08T10:43:48.786Z,35
2017-05-08T10:44:48.242Z,40
2017-05-08T10:45:48.274Z,40
2017-05-08T10:46:48.619Z,40
2017-05-08T10:47:48.338Z,40
2017-05-08T10:48:48.925Z,50
2017-05-08T10:49:47.766Z,55
2017-05-08T10:50:48.737Z,50
2017-05-08T10:51:48.435Z,45
2017-05-08T10:52:48.789Z,40
2017-05-08T10:53:48.435Z,40
2017-05-08T10:54:48.530Z,35
2017-05-08T10:55:48.238Z,35
2017-05-08T10:56:48.259Z,40
2017-05-08T10:57:48.611Z,40
2017-05-08T10:58:48.888Z,35
2017-05-08T10:59:48.398Z,30
2017-05-08T11:00:49.001Z,25
2017-05-08T11:01:49.027Z,25
2017-05-08T11:02:48.743Z,25
2017-05-08T11:03:49.333Z,25
2017-05-08T11:04:48.806Z,25
2017-05-08T11:05:48.831Z,30
2017-05-08T11:06:48.855Z,35
2017-05-08T11:07:49.189Z,40
2017-05-08T11:08:48.881Z,35
2017-05-08T11:09:48.621Z,30
2017-05-08T11:10:49.282Z,35
2017-05-08T11:11:48.683Z,35
2017-05-08T11:12:48.407Z,35
2017-05-08T11:13:49.608Z,35
2017-05-08T11:14:49.389Z,30
2017-05-08T11:15:48.794Z,25
2017-05-08T11:16:49.126Z,25
2017-05-08T11:17:48.846Z,20
2017-05-08T11:18:49.440Z,20
2017-05-08T11:19:49.522Z,20
2017-05-08T11:20:49.554Z,20
2017-05-08T11:21:49.276Z,25
2017-05-08T11:22:49.303Z,25
2017-05-08T11:23:49.877Z,25
2017-05-08T11:24:49.665Z,25
2017-05-08T11:25:49.697Z,25
2017-05-08T11:26:49.402Z,25
2017-05-08T11:27:49.737Z,25
2017-05-08T11:28:49.709Z,25
2017-05-08T11:29:49.481Z,30
2017-05-08T11:30:49.206Z,40
2017-05-08T11:31:48.925Z,50
2017-05-08T11:32:49.571Z,50
2017-05-08T11:33:49.843Z,55
2017-05-08T11:34:49.628Z,45
2017-05-08T11:35:49.333Z,45
2017-05-08T11:36:49.986Z,40
2017-05-08T11:37:50.019Z,40
2017-05-08T11:38:50.297Z,35
2017-05-08T11:39:50.072Z,35
2017-05-08T11:40:49.801Z,40
2017-05-08T11:41:50.117Z,35
2017-05-08T11:42:50.163Z,30
2017-05-08T11:43:50.131Z,30
2017-05-08T11:44:50.208Z,30
2017-05-08T11:45:50.240Z,25
2017-05-08T11:46:49.946Z,25
2017-05-08T11:47:50.313Z,30
2017-05-08T11:48:49.630Z,35
2017-05-08T11:49:50.042Z,40
2017-05-08T11:50:50.371Z,50
2017-05-08T11:51:50.089Z,60
2017-05-08T11:52:50.128Z,70
2017-05-08T11:53:50.405Z,65
2017-05-08T11:54:50.489Z,55
2017-05-08T11:55:50.518Z,55
2017-05-08T11:56:50.233Z,55
2017-05-08T11:57:50.606Z,40
2017-05-08T11:58:50.547Z,40
2017-05-08T11:59:50.308Z,40
2017-05-08T12:00:50.341Z,35
2017-05-08T12:01:50.062Z,30
2017-05-08T12:02:50.710Z,30
2017-05-08T12:03:50.679Z,25
2017-05-08T12:04:50.761Z,25
2017-05-08T12:05:50.477Z,25
2017-05-08T12:06:50.505Z,25
2017-05-08T12:07:50.853Z,20
2017-05-08T12:08:50.503Z,20
2017-05-08T12:09:50.269Z,20
2017-05-08T12:10:50.616Z,20
2017-05-08T12:11:50.327Z,20
2017-05-08T12:12:50.662Z,25
2017-05-08T12:13:50.951Z,20
2017-05-08T12:14:50.407Z,20
2017-05-08T12:15:51.064Z,20
2017-05-08T12:16:50.463Z,20
2017-05-08T12:17:50.497Z,20
2017-05-08T12:18:51.393Z,20
2017-05-08T12:19:51.174Z,20
2017-05-08T12:20:51.190Z,15
2017-05-08T12:21:50.917Z,15
2017-05-08T12:22:51.256Z,15
2017-05-08T12:23:50.646Z,15
2017-05-08T12:24:51.249Z,15
2017-05-08T12:25:51.340Z,15
2017-05-08T12:26:51.386Z,15
2017-05-08T12:27:50.770Z,15
2017-05-08T12:28:50.825Z,15
2017-05-08T12:29:51.075Z,15
2017-05-08T12:30:51.178Z,10
2017-05-08T12:31:51.186Z,10
2017-05-08T12:32:50.925Z,15
2017-05-08T12:33:51.248Z,20
2017-05-08T12:34:51.839Z,20
2017-05-08T12:35:51.646Z,20
2017-05-08T12:36:51.645Z,20
2017-05-08T12:37:50.733Z,20
2017-05-08T12:38:51.384Z,20
2017-05-08T12:39:51.042Z,20
2017-05-08T12:40:51.123Z,20
2017-05-08T12:41:51.783Z,25
2017-05-08T12:42:51.524Z,25
2017-05-08T12:43:50.896Z,35
2017-05-08T12:44:51.801Z,30
2017-05-08T12:45:51.895Z,35
2017-05-08T12:46:51.917Z,35
2017-05-08T12:47:51.356Z,35
2017-05-08T12:48:51.348Z,35
2017-05-08T12:49:52.250Z,30
2017-05-08T12:50:52.029Z,25
2017-05-08T12:51:51.449Z,20
2017-05-08T12:52:51.768Z,20
2017-05-08T12:53:51.797Z,15
2017-05-08T12:54:51.763Z,20
2017-05-08T12:55:52.154Z,20
2017-05-08T12:56:52.191Z,30
2017-05-08T12:57:51.904Z,35
2017-05-08T12:58:52.249Z,25
2017-05-08T12:59:51.575Z,15
2017-05-08T13:00:51.676Z,15
2017-05-08T13:01:52.327Z,15
2017-05-08T13:02:52.353Z,20
2017-05-08T13:03:51.758Z,20
2017-05-08T13:04:52.878Z,20
2017-05-08T13:05:52.898Z,15
2017-05-08T13:06:51.845Z,15
2017-05-08T13:07:52.488Z,15
2017-05-08T13:08:52.509Z,15
2017-05-08T13:09:52.716Z,15
2017-05-08T13:10:52.723Z,15
2017-05-08T13:11:51.980Z,15
2017-05-08T13:12:52.543Z,15
2017-05-08T13:13:51.715Z,10
2017-05-08T13:14:52.953Z,10
2017-05-08T13:15:53.197Z,10
2017-05-08T13:16:52.999Z,10
2017-05-08T13:17:52.138Z,10
2017-05-08T13:18:52.479Z,10
2017-05-08T13:19:52.981Z,10
2017-05-08T13:20:52.870Z,10
2017-05-08T13:21:52.506Z,15
2017-05-08T13:22:52.590Z,15
2017-05-08T13:23:52.924Z,15
2017-05-08T13:24:54.670Z,15
2017-05-08T13:25:52.593Z,15
2017-05-08T13:26:52.847Z,15
2017-05-08T13:27:53.042Z,15
2017-05-08T13:28:52.995Z,15
2017-05-08T13:29:52.658Z,15
2017-05-08T13:30:53.054Z,10
2017-05-08T13:31:52.859Z,10
2017-05-08T13:32:52.463Z,10
2017-05-08T13:33:52.783Z,10
2017-05-08T13:34:53.936Z,10
2017-05-08T13:35:52.950Z,15
2017-05-08T13:36:53.222Z,10
2017-05-08T13:37:53.581Z,10
2017-05-08T13:38:53.252Z,10
2017-05-08T13:39:53.849Z,10
2017-05-08T13:40:52.769Z,10
2017-05-08T13:41:53.634Z,10
2017-05-08T13:42:53.679Z,10
2017-05-08T13:43:53.187Z,15
2017-05-08T13:44:53.123Z,10
2017-05-08T13:46:08.373Z,10
2017-05-08T13:46:53.678Z,10
2017-05-08T13:47:53.514Z,10
2017-05-08T13:48:53.814Z,15
2017-05-08T13:49:54.025Z,15
2017-05-08T13:50:54.029Z,15
2017-05-08T13:51:53.405Z,10
2017-05-08T13:53:08.341Z,10
2017-05-08T13:53:53.746Z,10
2017-05-08T13:54:53.946Z,15
2017-05-08T13:55:54.247Z,15
2017-05-08T13:56:54.098Z,15
2017-05-08T13:58:08.353Z,15
2017-05-08T13:58:53.619Z,15
2017-05-08T13:59:54.336Z,15
2017-05-08T14:00:54.591Z,20
2017-05-08T14:01:54.665Z,25
2017-05-08T14:02:55.230Z,20
2017-05-08T14:03:56.241Z,15
2017-05-08T14:05:09.026Z,10
2017-05-08T14:05:53.943Z,10
2017-05-08T14:06:53.691Z,10
2017-05-08T14:07:53.193Z,10
2017-05-08T14:08:53.845Z,10
2017-05-08T14:09:54.101Z,10
2017-05-08T14:11:09.072Z,10
2017-05-08T14:11:54.149Z,5
2017-05-08T14:12:53.889Z,5
2017-05-08T14:13:54.949Z,5
2017-05-08T14:14:54.074Z,5
2017-05-08T14:15:54.780Z,5
2017-05-08T14:16:54.767Z,5
2017-05-08T14:17:54.097Z,5
2017-05-08T14:18:55.135Z,5
2017-05-08T14:19:54.056Z,10
2017-05-08T14:20:54.479Z,10
2017-05-08T14:21:54.976Z,10
2017-05-08T14:22:53.596Z,10
2017-05-08T14:23:54.653Z,10
2017-05-08T14:24:54.213Z,15
2017-05-08T14:25:54.309Z,15
2017-05-08T14:26:54.581Z,10
2017-05-08T14:27:54.356Z,10
2017-05-08T14:28:54.084Z,15
2017-05-08T14:29:54.726Z,15
2017-05-08T14:30:54.125Z,15
2017-05-08T14:31:54.399Z,15